sensor_id;sensor_type;location;lat;lon;timestamp;P1;durP1;ratioP1;P2;durP2;ratioP2
48487;SDS011;34289;48.572;13.378;2023-01-29T00:01:04;27.83;;;17.55;;
48487;SDS011;34289;48.572;13.378;2023-01-29T00:03:30;26.58;;;18.58;;
48487;SDS011;34289;48.572;13.378;2023-01-29T00:05:56;25.45;;;17.73;;
48487;SDS011;34289;48.572;13.378;2023-01-29T00:08:23;25.13;;;17.92;;
48487;SDS011;34289;48.572;13.378;2023-01-29T00:10:49;25.63;;;17.75;;
48487;SDS011;34289;48.572;13.378;2023-01-29T00:13:15;23.27;;;18.33;;
48487;SDS011;34289;48.572;13.378;2023-01-29T00:15:41;25.00;;;18.13;;
48487;SDS011;34289;48.572;13.378;2023-01-29T00:18:07;25.38;;;17.90;;
48487;SDS011;34289;48.572;13.378;2023-01-29T00:20:33;21.10;;;15.95;;
48487;SDS011;34289;48.572;13.378;2023-01-29T00:22:59;20.33;;;14.77;;
48487;SDS011;34289;48.572;13.378;2023-01-29T00:25:25;20.52;;;15.18;;
48487;SDS011;34289;48.572;13.378;2023-01-29T00:27:51;19.75;;;14.32;;
48487;SDS011;34289;48.572;13.378;2023-01-29T00:30:17;18.88;;;14.73;;
48487;SDS011;34289;48.572;13.378;2023-01-29T00:32:44;21.80;;;15.13;;
48487;SDS011;34289;48.572;13.378;2023-01-29T00:35:10;18.73;;;13.35;;
48487;SDS011;34289;48.572;13.378;2023-01-29T00:37:36;20.55;;;14.05;;
48487;SDS011;34289;48.572;13.378;2023-01-29T00:40:03;16.67;;;12.95;;
48487;SDS011;34289;48.572;13.378;2023-01-29T00:42:29;18.33;;;12.98;;
48487;SDS011;34289;48.572;13.378;2023-01-29T00:45:14;19.05;;;13.57;;
48487;SDS011;34289;48.572;13.378;2023-01-29T00:47:40;22.10;;;13.63;;
48487;SDS011;34289;48.572;13.378;2023-01-29T00:50:07;21.63;;;14.57;;
48487;SDS011;34289;48.572;13.378;2023-01-29T00:52:34;21.40;;;14.90;;
48487;SDS011;34289;48.572;13.378;2023-01-29T00:55:05;20.75;;;15.40;;
48487;SDS011;34289;48.572;13.378;2023-01-29T00:57:32;18.13;;;14.00;;
48487;SDS011;34289;48.572;13.378;2023-01-29T00:59:59;19.77;;;13.55;;
48487;SDS011;34289;48.572;13.378;2023-01-29T01:02:25;21.23;;;15.75;;
48487;SDS011;34289;48.572;13.378;2023-01-29T01:05:11;18.15;;;13.70;;
48487;SDS011;34289;48.572;13.378;2023-01-29T01:07:44;21.67;;;15.55;;
48487;SDS011;34289;48.572;13.378;2023-01-29T01:10:12;19.88;;;14.68;;
48487;SDS011;34289;48.572;13.378;2023-01-29T01:12:45;21.63;;;16.48;;
48487;SDS011;34289;48.572;13.378;2023-01-29T01:15:11;21.63;;;15.40;;
48487;SDS011;34289;48.572;13.378;2023-01-29T01:17:37;24.42;;;17.33;;
48487;SDS011;34289;48.572;13.378;2023-01-29T01:20:04;23.45;;;16.67;;
48487;SDS011;34289;48.572;13.378;2023-01-29T01:22:30;22.13;;;15.95;;
48487;SDS011;34289;48.572;13.378;2023-01-29T01:24:56;19.10;;;15.23;;
48487;SDS011;34289;48.572;13.378;2023-01-29T01:27:22;19.85;;;14.65;;
48487;SDS011;34289;48.572;13.378;2023-01-29T01:29:49;22.83;;;16.27;;
48487;SDS011;34289;48.572;13.378;2023-01-29T01:32:15;19.65;;;15.10;;
48487;SDS011;34289;48.572;13.378;2023-01-29T01:34:41;19.15;;;14.15;;
48487;SDS011;34289;48.572;13.378;2023-01-29T01:37:09;17.58;;;13.25;;
48487;SDS011;34289;48.572;13.378;2023-01-29T01:39:35;18.23;;;13.95;;
48487;SDS011;34289;48.572;13.378;2023-01-29T01:42:02;17.45;;;12.38;;
48487;SDS011;34289;48.572;13.378;2023-01-29T01:47:13;16.10;;;11.35;;
48487;SDS011;34289;48.572;13.378;2023-01-29T01:49:39;17.33;;;11.48;;
48487;SDS011;34289;48.572;13.378;2023-01-29T01:52:05;14.32;;;11.57;;
48487;SDS011;34289;48.572;13.378;2023-01-29T01:54:33;14.48;;;11.23;;
48487;SDS011;34289;48.572;13.378;2023-01-29T01:57:06;13.15;;;11.38;;
48487;SDS011;34289;48.572;13.378;2023-01-29T01:59:40;15.40;;;12.02;;
48487;SDS011;34289;48.572;13.378;2023-01-29T02:02:07;14.05;;;11.43;;
48487;SDS011;34289;48.572;13.378;2023-01-29T02:04:52;14.43;;;11.75;;
48487;SDS011;34289;48.572;13.378;2023-01-29T02:07:41;16.40;;;11.68;;
48487;SDS011;34289;48.572;13.378;2023-01-29T02:10:26;14.50;;;11.35;;
48487;SDS011;34289;48.572;13.378;2023-01-29T02:12:55;13.80;;;11.30;;
48487;SDS011;34289;48.572;13.378;2023-01-29T02:15:21;14.05;;;11.32;;
48487;SDS011;34289;48.572;13.378;2023-01-29T02:17:47;18.00;;;12.25;;
48487;SDS011;34289;48.572;13.378;2023-01-29T02:20:23;14.57;;;11.77;;
48487;SDS011;34289;48.572;13.378;2023-01-29T02:36:01;16.08;;;12.07;;
48487;SDS011;34289;48.572;13.378;2023-01-29T02:38:27;15.45;;;11.48;;
48487;SDS011;34289;48.572;13.378;2023-01-29T02:40:56;15.65;;;12.32;;
48487;SDS011;34289;48.572;13.378;2023-01-29T02:43:27;16.25;;;11.93;;
48487;SDS011;34289;48.572;13.378;2023-01-29T02:48:24;12.77;;;11.18;;
48487;SDS011;34289;48.572;13.378;2023-01-29T02:50:56;14.68;;;11.88;;
48487;SDS011;34289;48.572;13.378;2023-01-29T02:53:28;17.60;;;12.25;;
48487;SDS011;34289;48.572;13.378;2023-01-29T02:55:59;15.57;;;12.50;;
48487;SDS011;34289;48.572;13.378;2023-01-29T02:58:28;15.07;;;12.05;;
48487;SDS011;34289;48.572;13.378;2023-01-29T03:00:58;14.93;;;12.07;;
48487;SDS011;34289;48.572;13.378;2023-01-29T03:03:27;16.33;;;11.98;;
48487;SDS011;34289;48.572;13.378;2023-01-29T03:11:18;18.38;;;13.13;;
48487;SDS011;34289;48.572;13.378;2023-01-29T03:13:45;14.75;;;11.55;;
48487;SDS011;34289;48.572;13.378;2023-01-29T03:18:44;16.67;;;12.98;;
48487;SDS011;34289;48.572;13.378;2023-01-29T03:21:14;18.25;;;12.43;;
48487;SDS011;34289;48.572;13.378;2023-01-29T03:24:01;16.73;;;11.70;;
48487;SDS011;34289;48.572;13.378;2023-01-29T03:26:46;16.63;;;13.00;;
48487;SDS011;34289;48.572;13.378;2023-01-29T03:29:31;18.02;;;13.20;;
48487;SDS011;34289;48.572;13.378;2023-01-29T03:32:17;15.75;;;12.98;;
48487;SDS011;34289;48.572;13.378;2023-01-29T03:34:47;20.20;;;13.80;;
48487;SDS011;34289;48.572;13.378;2023-01-29T03:39:54;16.35;;;12.80;;
48487;SDS011;34289;48.572;13.378;2023-01-29T03:47:42;16.73;;;12.88;;
48487;SDS011;34289;48.572;13.378;2023-01-29T03:50:08;14.48;;;12.00;;
48487;SDS011;34289;48.572;13.378;2023-01-29T03:52:44;15.68;;;12.30;;
48487;SDS011;34289;48.572;13.378;2023-01-29T03:55:19;18.00;;;11.88;;
48487;SDS011;34289;48.572;13.378;2023-01-29T04:00:15;12.63;;;10.27;;
48487;SDS011;34289;48.572;13.378;2023-01-29T04:02:46;16.48;;;12.23;;
48487;SDS011;34289;48.572;13.378;2023-01-29T04:05:15;20.08;;;12.55;;
48487;SDS011;34289;48.572;13.378;2023-01-29T04:07:42;14.95;;;11.73;;
48487;SDS011;34289;48.572;13.378;2023-01-29T04:10:15;16.23;;;12.82;;
48487;SDS011;34289;48.572;13.378;2023-01-29T04:12:49;17.52;;;12.38;;
48487;SDS011;34289;48.572;13.378;2023-01-29T04:15:15;13.27;;;11.87;;
48487;SDS011;34289;48.572;13.378;2023-01-29T04:17:44;16.20;;;13.25;;
48487;SDS011;34289;48.572;13.378;2023-01-29T04:20:12;16.52;;;12.98;;
48487;SDS011;34289;48.572;13.378;2023-01-29T04:22:38;16.38;;;13.57;;
48487;SDS011;34289;48.572;13.378;2023-01-29T04:25:09;16.13;;;13.10;;
48487;SDS011;34289;48.572;13.378;2023-01-29T04:32:56;14.70;;;12.65;;
48487;SDS011;34289;48.572;13.378;2023-01-29T04:35:30;15.93;;;11.98;;
48487;SDS011;34289;48.572;13.378;2023-01-29T04:40:44;14.88;;;11.48;;
48487;SDS011;34289;48.572;13.378;2023-01-29T04:43:37;12.50;;;11.20;;
48487;SDS011;34289;48.572;13.378;2023-01-29T04:46:24;13.20;;;11.27;;
48487;SDS011;34289;48.572;13.378;2023-01-29T04:53:51;15.02;;;11.77;;
48487;SDS011;34289;48.572;13.378;2023-01-29T04:56:25;12.77;;;9.88;;
48487;SDS011;34289;48.572;13.378;2023-01-29T04:58:54;11.82;;;10.35;;
48487;SDS011;34289;48.572;13.378;2023-01-29T05:01:23;17.90;;;10.35;;
48487;SDS011;34289;48.572;13.378;2023-01-29T05:03:53;13.30;;;10.32;;
48487;SDS011;34289;48.572;13.378;2023-01-29T05:06:20;12.32;;;10.73;;
48487;SDS011;34289;48.572;13.378;2023-01-29T05:08:48;11.05;;;9.63;;
48487;SDS011;34289;48.572;13.378;2023-01-29T05:11:16;10.80;;;9.60;;
48487;SDS011;34289;48.572;13.378;2023-01-29T05:13:43;9.57;;;8.38;;
48487;SDS011;34289;48.572;13.378;2023-01-29T05:16:12;11.18;;;9.20;;
48487;SDS011;34289;48.572;13.378;2023-01-29T05:18:39;9.82;;;8.82;;
48487;SDS011;34289;48.572;13.378;2023-01-29T05:21:06;8.93;;;8.02;;
48487;SDS011;34289;48.572;13.378;2023-01-29T05:23:33;9.35;;;8.40;;
48487;SDS011;34289;48.572;13.378;2023-01-29T05:25:59;8.55;;;7.65;;
48487;SDS011;34289;48.572;13.378;2023-01-29T05:28:25;8.35;;;7.55;;
48487;SDS011;34289;48.572;13.378;2023-01-29T05:30:52;8.40;;;7.57;;
48487;SDS011;34289;48.572;13.378;2023-01-29T05:33:19;7.82;;;7.13;;
48487;SDS011;34289;48.572;13.378;2023-01-29T05:35:45;8.38;;;7.57;;
48487;SDS011;34289;48.572;13.378;2023-01-29T05:38:12;7.22;;;6.63;;
48487;SDS011;34289;48.572;13.378;2023-01-29T05:40:38;7.22;;;6.63;;
48487;SDS011;34289;48.572;13.378;2023-01-29T05:43:05;8.00;;;7.30;;
48487;SDS011;34289;48.572;13.378;2023-01-29T05:45:38;7.82;;;7.13;;
48487;SDS011;34289;48.572;13.378;2023-01-29T05:48:04;7.35;;;6.75;;
48487;SDS011;34289;48.572;13.378;2023-01-29T05:50:30;7.40;;;6.75;;
48487;SDS011;34289;48.572;13.378;2023-01-29T05:53:00;7.95;;;7.20;;
48487;SDS011;34289;48.572;13.378;2023-01-29T05:55:26;8.18;;;7.20;;
48487;SDS011;34289;48.572;13.378;2023-01-29T05:57:56;7.43;;;6.72;;
48487;SDS011;34289;48.572;13.378;2023-01-29T06:00:22;7.32;;;6.65;;
48487;SDS011;34289;48.572;13.378;2023-01-29T06:02:48;6.68;;;6.18;;
48487;SDS011;34289;48.572;13.378;2023-01-29T06:05:14;6.97;;;6.38;;
48487;SDS011;34289;48.572;13.378;2023-01-29T06:07:40;7.35;;;6.75;;
48487;SDS011;34289;48.572;13.378;2023-01-29T06:10:12;7.78;;;7.07;;
48487;SDS011;34289;48.572;13.378;2023-01-29T06:12:39;7.47;;;6.88;;
48487;SDS011;34289;48.572;13.378;2023-01-29T06:15:05;7.28;;;6.68;;
48487;SDS011;34289;48.572;13.378;2023-01-29T06:17:32;9.10;;;8.18;;
48487;SDS011;34289;48.572;13.378;2023-01-29T06:19:57;6.88;;;6.30;;
48487;SDS011;34289;48.572;13.378;2023-01-29T06:22:23;8.25;;;7.50;;
48487;SDS011;34289;48.572;13.378;2023-01-29T06:24:49;7.45;;;6.85;;
48487;SDS011;34289;48.572;13.378;2023-01-29T06:27:15;7.07;;;6.40;;
48487;SDS011;34289;48.572;13.378;2023-01-29T06:29:41;7.20;;;6.50;;
48487;SDS011;34289;48.572;13.378;2023-01-29T06:32:07;7.35;;;6.75;;
48487;SDS011;34289;48.572;13.378;2023-01-29T06:34:33;7.70;;;7.10;;
48487;SDS011;34289;48.572;13.378;2023-01-29T06:37:00;6.72;;;6.13;;
48487;SDS011;34289;48.572;13.378;2023-01-29T06:39:26;6.35;;;5.82;;
48487;SDS011;34289;48.572;13.378;2023-01-29T06:41:52;6.07;;;5.63;;
48487;SDS011;34289;48.572;13.378;2023-01-29T06:44:18;6.25;;;5.78;;
48487;SDS011;34289;48.572;13.378;2023-01-29T06:46:44;6.40;;;5.90;;
48487;SDS011;34289;48.572;13.378;2023-01-29T06:49:10;6.90;;;5.20;;
48487;SDS011;34289;48.572;13.378;2023-01-29T06:51:36;6.57;;;5.97;;
48487;SDS011;34289;48.572;13.378;2023-01-29T06:54:02;6.93;;;6.32;;
48487;SDS011;34289;48.572;13.378;2023-01-29T06:56:30;6.38;;;5.78;;
48487;SDS011;34289;48.572;13.378;2023-01-29T06:58:56;6.38;;;5.78;;
48487;SDS011;34289;48.572;13.378;2023-01-29T07:01:22;6.28;;;5.78;;
48487;SDS011;34289;48.572;13.378;2023-01-29T07:03:48;6.05;;;5.55;;
48487;SDS011;34289;48.572;13.378;2023-01-29T07:06:15;6.75;;;6.25;;
48487;SDS011;34289;48.572;13.378;2023-01-29T07:08:41;6.22;;;5.63;;
48487;SDS011;34289;48.572;13.378;2023-01-29T07:11:07;5.40;;;5.00;;
48487;SDS011;34289;48.572;13.378;2023-01-29T07:13:33;7.25;;;6.40;;
48487;SDS011;34289;48.572;13.378;2023-01-29T07:16:00;7.47;;;6.70;;
48487;SDS011;34289;48.572;13.378;2023-01-29T07:18:27;9.48;;;8.50;;
48487;SDS011;34289;48.572;13.378;2023-01-29T07:20:53;7.10;;;6.40;;
48487;SDS011;34289;48.572;13.378;2023-01-29T07:23:19;5.88;;;5.38;;
48487;SDS011;34289;48.572;13.378;2023-01-29T07:25:45;7.45;;;6.68;;
48487;SDS011;34289;48.572;13.378;2023-01-29T07:28:13;6.65;;;5.85;;
48487;SDS011;34289;48.572;13.378;2023-01-29T07:30:39;6.97;;;6.38;;
48487;SDS011;34289;48.572;13.378;2023-01-29T07:33:06;6.45;;;5.88;;
48487;SDS011;34289;48.572;13.378;2023-01-29T07:35:39;6.43;;;5.85;;
48487;SDS011;34289;48.572;13.378;2023-01-29T07:38:06;6.47;;;5.88;;
48487;SDS011;34289;48.572;13.378;2023-01-29T07:40:32;6.30;;;5.60;;
48487;SDS011;34289;48.572;13.378;2023-01-29T07:42:59;5.45;;;5.05;;
48487;SDS011;34289;48.572;13.378;2023-01-29T07:45:26;5.57;;;5.18;;
48487;SDS011;34289;48.572;13.378;2023-01-29T07:47:53;6.10;;;5.60;;
48487;SDS011;34289;48.572;13.378;2023-01-29T07:50:19;6.53;;;5.90;;
48487;SDS011;34289;48.572;13.378;2023-01-29T07:52:45;6.32;;;5.72;;
48487;SDS011;34289;48.572;13.378;2023-01-29T07:55:11;5.40;;;5.00;;
48487;SDS011;34289;48.572;13.378;2023-01-29T07:57:37;6.68;;;6.18;;
48487;SDS011;34289;48.572;13.378;2023-01-29T08:00:03;7.60;;;6.90;;
48487;SDS011;34289;48.572;13.378;2023-01-29T08:02:29;8.48;;;6.75;;
48487;SDS011;34289;48.572;13.378;2023-01-29T08:04:55;6.05;;;5.55;;
48487;SDS011;34289;48.572;13.378;2023-01-29T08:07:21;7.47;;;6.82;;
48487;SDS011;34289;48.572;13.378;2023-01-29T08:09:47;6.90;;;6.30;;
48487;SDS011;34289;48.572;13.378;2023-01-29T08:12:13;6.28;;;5.75;;
48487;SDS011;34289;48.572;13.378;2023-01-29T08:14:39;6.80;;;6.20;;
48487;SDS011;34289;48.572;13.378;2023-01-29T08:17:05;6.55;;;5.95;;
48487;SDS011;34289;48.572;13.378;2023-01-29T08:19:31;6.18;;;5.68;;
48487;SDS011;34289;48.572;13.378;2023-01-29T08:21:57;6.07;;;5.47;;
48487;SDS011;34289;48.572;13.378;2023-01-29T08:24:23;6.55;;;6.05;;
48487;SDS011;34289;48.572;13.378;2023-01-29T08:26:49;5.75;;;5.20;;
48487;SDS011;34289;48.572;13.378;2023-01-29T08:29:15;5.80;;;5.25;;
48487;SDS011;34289;48.572;13.378;2023-01-29T08:31:41;6.15;;;5.63;;
48487;SDS011;34289;48.572;13.378;2023-01-29T08:34:07;6.18;;;5.60;;
48487;SDS011;34289;48.572;13.378;2023-01-29T08:36:33;5.78;;;4.82;;
48487;SDS011;34289;48.572;13.378;2023-01-29T08:38:59;7.43;;;6.20;;
48487;SDS011;34289;48.572;13.378;2023-01-29T08:41:25;5.90;;;5.32;;
48487;SDS011;34289;48.572;13.378;2023-01-29T08:43:51;6.00;;;5.25;;
48487;SDS011;34289;48.572;13.378;2023-01-29T08:46:17;6.22;;;5.63;;
48487;SDS011;34289;48.572;13.378;2023-01-29T08:48:43;6.63;;;6.00;;
48487;SDS011;34289;48.572;13.378;2023-01-29T08:51:09;6.50;;;5.72;;
48487;SDS011;34289;48.572;13.378;2023-01-29T08:53:35;6.20;;;5.60;;
48487;SDS011;34289;48.572;13.378;2023-01-29T08:56:01;10.93;;;9.45;;
48487;SDS011;34289;48.572;13.378;2023-01-29T08:58:27;13.00;;;10.25;;
48487;SDS011;34289;48.572;13.378;2023-01-29T09:00:53;19.30;;;11.85;;
48487;SDS011;34289;48.572;13.378;2023-01-29T09:03:19;7.90;;;7.15;;
48487;SDS011;34289;48.572;13.378;2023-01-29T09:05:45;13.30;;;10.90;;
48487;SDS011;34289;48.572;13.378;2023-01-29T09:08:11;10.30;;;9.32;;
48487;SDS011;34289;48.572;13.378;2023-01-29T09:10:37;6.03;;;5.60;;
48487;SDS011;34289;48.572;13.378;2023-01-29T09:13:04;6.93;;;6.32;;
48487;SDS011;34289;48.572;13.378;2023-01-29T09:15:30;5.95;;;5.40;;
48487;SDS011;34289;48.572;13.378;2023-01-29T09:17:56;8.40;;;5.75;;
48487;SDS011;34289;48.572;13.378;2023-01-29T09:20:22;7.65;;;6.90;;
48487;SDS011;34289;48.572;13.378;2023-01-29T09:22:48;6.50;;;5.90;;
48487;SDS011;34289;48.572;13.378;2023-01-29T09:25:17;6.47;;;5.88;;
48487;SDS011;34289;48.572;13.378;2023-01-29T09:27:43;6.75;;;6.25;;
48487;SDS011;34289;48.572;13.378;2023-01-29T09:30:09;6.28;;;5.72;;
48487;SDS011;34289;48.572;13.378;2023-01-29T09:32:35;6.78;;;6.18;;
48487;SDS011;34289;48.572;13.378;2023-01-29T09:35:01;8.73;;;5.43;;
48487;SDS011;34289;48.572;13.378;2023-01-29T09:37:27;5.60;;;5.10;;
48487;SDS011;34289;48.572;13.378;2023-01-29T09:39:53;6.38;;;5.82;;
48487;SDS011;34289;48.572;13.378;2023-01-29T09:42:27;6.88;;;5.95;;
48487;SDS011;34289;48.572;13.378;2023-01-29T09:45:13;6.38;;;5.72;;
48487;SDS011;34289;48.572;13.378;2023-01-29T09:47:41;6.65;;;6.05;;
48487;SDS011;34289;48.572;13.378;2023-01-29T09:50:21;6.53;;;5.78;;
48487;SDS011;34289;48.572;13.378;2023-01-29T09:57:43;6.38;;;5.88;;
48487;SDS011;34289;48.572;13.378;2023-01-29T10:00:31;6.53;;;5.93;;
48487;SDS011;34289;48.572;13.378;2023-01-29T10:10:48;7.18;;;6.68;;
48487;SDS011;34289;48.572;13.378;2023-01-29T10:16:13;7.35;;;6.75;;
48487;SDS011;34289;48.572;13.378;2023-01-29T10:26:32;7.22;;;6.65;;
48487;SDS011;34289;48.572;13.378;2023-01-29T10:29:00;7.90;;;7.03;;
48487;SDS011;34289;48.572;13.378;2023-01-29T10:31:28;7.47;;;6.88;;
48487;SDS011;34289;48.572;13.378;2023-01-29T10:34:11;8.15;;;7.35;;
48487;SDS011;34289;48.572;13.378;2023-01-29T10:36:40;8.25;;;7.35;;
48487;SDS011;34289;48.572;13.378;2023-01-29T10:39:15;7.85;;;7.15;;
48487;SDS011;34289;48.572;13.378;2023-01-29T11:02:26;7.53;;;6.93;;
48487;SDS011;34289;48.572;13.378;2023-01-29T11:04:52;7.90;;;7.15;;
48487;SDS011;34289;48.572;13.378;2023-01-29T11:07:18;6.45;;;5.95;;
48487;SDS011;34289;48.572;13.378;2023-01-29T11:12:16;6.65;;;6.13;;
48487;SDS011;34289;48.572;13.378;2023-01-29T11:14:44;7.47;;;6.78;;
48487;SDS011;34289;48.572;13.378;2023-01-29T11:17:18;7.85;;;6.65;;
48487;SDS011;34289;48.572;13.378;2023-01-29T11:19:45;9.77;;;8.30;;
48487;SDS011;34289;48.572;13.378;2023-01-29T11:22:12;8.93;;;7.70;;
48487;SDS011;34289;48.572;13.378;2023-01-29T11:24:39;25.52;;;15.27;;
48487;SDS011;34289;48.572;13.378;2023-01-29T11:27:12;78.53;;;37.58;;
48487;SDS011;34289;48.572;13.378;2023-01-29T11:29:42;44.15;;;23.60;;
48487;SDS011;34289;48.572;13.378;2023-01-29T11:34:57;14.52;;;12.05;;
48487;SDS011;34289;48.572;13.378;2023-01-29T11:37:30;12.27;;;9.52;;
48487;SDS011;34289;48.572;13.378;2023-01-29T11:42:22;11.73;;;10.18;;
48487;SDS011;34289;48.572;13.378;2023-01-29T11:44:51;18.75;;;13.70;;
48487;SDS011;34289;48.572;13.378;2023-01-29T11:47:27;16.35;;;12.23;;
48487;SDS011;34289;48.572;13.378;2023-01-29T11:49:54;8.88;;;7.32;;
48487;SDS011;34289;48.572;13.378;2023-01-29T11:52:21;8.85;;;7.57;;
48487;SDS011;34289;48.572;13.378;2023-01-29T11:54:49;9.30;;;8.40;;
48487;SDS011;34289;48.572;13.378;2023-01-29T11:57:27;9.55;;;8.65;;
48487;SDS011;34289;48.572;13.378;2023-01-29T11:59:55;9.50;;;8.70;;
48487;SDS011;34289;48.572;13.378;2023-01-29T12:04:50;9.82;;;9.07;;
48487;SDS011;34289;48.572;13.378;2023-01-29T12:07:17;14.73;;;9.40;;
48487;SDS011;34289;48.572;13.378;2023-01-29T12:09:48;10.02;;;8.70;;
48487;SDS011;34289;48.572;13.378;2023-01-29T12:12:16;9.23;;;8.38;;
48487;SDS011;34289;48.572;13.378;2023-01-29T12:14:42;9.05;;;7.93;;
48487;SDS011;34289;48.572;13.378;2023-01-29T12:20:13;8.95;;;8.13;;
48487;SDS011;34289;48.572;13.378;2023-01-29T12:22:52;8.98;;;8.25;;
48487;SDS011;34289;48.572;13.378;2023-01-29T12:25:28;10.25;;;9.35;;
48487;SDS011;34289;48.572;13.378;2023-01-29T12:28:43;10.07;;;9.27;;
48487;SDS011;34289;48.572;13.378;2023-01-29T12:30:53;9.70;;;8.90;;
48487;SDS011;34289;48.572;13.378;2023-01-29T12:34:03;9.27;;;8.40;;
48487;SDS011;34289;48.572;13.378;2023-01-29T12:38:35;9.27;;;8.48;;
48487;SDS011;34289;48.572;13.378;2023-01-29T12:41:12;10.13;;;9.20;;
48487;SDS011;34289;48.572;13.378;2023-01-29T12:43:46;8.48;;;7.78;;
48487;SDS011;34289;48.572;13.378;2023-01-29T12:46:17;10.07;;;8.85;;
48487;SDS011;34289;48.572;13.378;2023-01-29T12:48:46;10.10;;;9.10;;
48487;SDS011;34289;48.572;13.378;2023-01-29T12:51:17;10.18;;;9.18;;
48487;SDS011;34289;48.572;13.378;2023-01-29T12:56:25;10.15;;;9.15;;
48487;SDS011;34289;48.572;13.378;2023-01-29T12:58:53;9.68;;;8.77;;
48487;SDS011;34289;48.572;13.378;2023-01-29T13:01:33;9.93;;;9.02;;
48487;SDS011;34289;48.572;13.378;2023-01-29T13:04:12;9.95;;;9.05;;
48487;SDS011;34289;48.572;13.378;2023-01-29T13:06:41;10.65;;;9.68;;
48487;SDS011;34289;48.572;13.378;2023-01-29T13:09:13;11.00;;;9.90;;
48487;SDS011;34289;48.572;13.378;2023-01-29T13:11:52;13.10;;;9.40;;
48487;SDS011;34289;48.572;13.378;2023-01-29T13:14:23;10.90;;;9.98;;
48487;SDS011;34289;48.572;13.378;2023-01-29T13:16:51;12.35;;;11.15;;
48487;SDS011;34289;48.572;13.378;2023-01-29T13:19:24;12.10;;;10.90;;
48487;SDS011;34289;48.572;13.378;2023-01-29T13:21:52;12.70;;;11.50;;
48487;SDS011;34289;48.572;13.378;2023-01-29T13:24:20;11.05;;;9.82;;
48487;SDS011;34289;48.572;13.378;2023-01-29T13:26:47;10.98;;;10.02;;
48487;SDS011;34289;48.572;13.378;2023-01-29T13:29:23;10.63;;;9.52;;
48487;SDS011;34289;48.572;13.378;2023-01-29T13:31:53;10.02;;;9.07;;
48487;SDS011;34289;48.572;13.378;2023-01-29T13:34:21;13.02;;;11.63;;
48487;SDS011;34289;48.572;13.378;2023-01-29T13:36:48;13.48;;;11.30;;
48487;SDS011;34289;48.572;13.378;2023-01-29T13:39:37;26.30;;;16.90;;
48487;SDS011;34289;48.572;13.378;2023-01-29T13:45:00;45.00;;;23.02;;
48487;SDS011;34289;48.572;13.378;2023-01-29T13:47:28;15.75;;;10.88;;
48487;SDS011;34289;48.572;13.378;2023-01-29T13:50:01;31.73;;;17.42;;
48487;SDS011;34289;48.572;13.378;2023-01-29T13:54:58;14.18;;;10.75;;
48487;SDS011;34289;48.572;13.378;2023-01-29T13:57:32;12.65;;;11.30;;
48487;SDS011;34289;48.572;13.378;2023-01-29T13:59:59;13.60;;;12.00;;
48487;SDS011;34289;48.572;13.378;2023-01-29T14:02:25;14.35;;;12.93;;
48487;SDS011;34289;48.572;13.378;2023-01-29T14:10:14;13.43;;;11.38;;
48487;SDS011;34289;48.572;13.378;2023-01-29T14:12:41;13.57;;;11.77;;
48487;SDS011;34289;48.572;13.378;2023-01-29T14:15:23;10.20;;;9.30;;
48487;SDS011;34289;48.572;13.378;2023-01-29T14:17:53;16.33;;;14.73;;
48487;SDS011;34289;48.572;13.378;2023-01-29T14:20:20;10.90;;;9.80;;
48487;SDS011;34289;48.572;13.378;2023-01-29T14:22:54;10.00;;;9.00;;
48487;SDS011;34289;48.572;13.378;2023-01-29T14:25:22;9.88;;;8.95;;
48487;SDS011;34289;48.572;13.378;2023-01-29T14:27:52;9.68;;;8.68;;
48487;SDS011;34289;48.572;13.378;2023-01-29T14:30:18;10.32;;;9.32;;
48487;SDS011;34289;48.572;13.378;2023-01-29T14:32:47;12.02;;;10.63;;
48487;SDS011;34289;48.572;13.378;2023-01-29T14:37:48;57.38;;;32.35;;
48487;SDS011;34289;48.572;13.378;2023-01-29T14:40:20;100.75;;;53.65;;
48487;SDS011;34289;48.572;13.378;2023-01-29T14:45:26;155.65;;;77.97;;
48487;SDS011;34289;48.572;13.378;2023-01-29T14:47:54;45.58;;;28.98;;
48487;SDS011;34289;48.572;13.378;2023-01-29T14:50:37;52.08;;;33.53;;
48487;SDS011;34289;48.572;13.378;2023-01-29T14:58:29;29.90;;;21.00;;
48487;SDS011;34289;48.572;13.378;2023-01-29T15:00:58;19.48;;;15.13;;
48487;SDS011;34289;48.572;13.378;2023-01-29T15:03:34;56.97;;;36.63;;
48487;SDS011;34289;48.572;13.378;2023-01-29T15:06:03;30.75;;;19.10;;
48487;SDS011;34289;48.572;13.378;2023-01-29T15:08:39;13.05;;;11.70;;
48487;SDS011;34289;48.572;13.378;2023-01-29T15:11:12;28.40;;;20.17;;
48487;SDS011;34289;48.572;13.378;2023-01-29T15:14:15;17.80;;;15.98;;
48487;SDS011;34289;48.572;13.378;2023-01-29T15:16:53;16.58;;;14.82;;
48487;SDS011;34289;48.572;13.378;2023-01-29T15:19:31;13.20;;;11.75;;
48487;SDS011;34289;48.572;13.378;2023-01-29T15:24:28;15.50;;;13.90;;
48487;SDS011;34289;48.572;13.378;2023-01-29T15:26:54;11.25;;;10.05;;
48487;SDS011;34289;48.572;13.378;2023-01-29T15:29:21;13.50;;;12.20;;
48487;SDS011;34289;48.572;13.378;2023-01-29T15:31:48;11.70;;;9.70;;
48487;SDS011;34289;48.572;13.378;2023-01-29T15:34:14;12.88;;;11.60;;
48487;SDS011;34289;48.572;13.378;2023-01-29T15:36:40;14.80;;;11.55;;
48487;SDS011;34289;48.572;13.378;2023-01-29T15:41:32;16.63;;;13.63;;
48487;SDS011;34289;48.572;13.378;2023-01-29T15:43:58;19.25;;;16.50;;
48487;SDS011;34289;48.572;13.378;2023-01-29T15:48:51;10.90;;;9.23;;
48487;SDS011;34289;48.572;13.378;2023-01-29T15:51:21;10.73;;;9.63;;
48487;SDS011;34289;48.572;13.378;2023-01-29T15:53:49;11.63;;;10.32;;
48487;SDS011;34289;48.572;13.378;2023-01-29T15:56:17;26.80;;;17.55;;
48487;SDS011;34289;48.572;13.378;2023-01-29T15:58:47;13.20;;;11.20;;
48487;SDS011;34289;48.572;13.378;2023-01-29T16:01:14;13.57;;;12.13;;
48487;SDS011;34289;48.572;13.378;2023-01-29T16:03:40;11.80;;;10.60;;
48487;SDS011;34289;48.572;13.378;2023-01-29T16:06:06;10.32;;;9.32;;
48487;SDS011;34289;48.572;13.378;2023-01-29T16:08:33;11.65;;;10.30;;
48487;SDS011;34289;48.572;13.378;2023-01-29T16:10:59;11.20;;;9.85;;
48487;SDS011;34289;48.572;13.378;2023-01-29T16:13:27;12.38;;;9.23;;
48487;SDS011;34289;48.572;13.378;2023-01-29T16:15:57;14.65;;;11.68;;
48487;SDS011;34289;48.572;13.378;2023-01-29T16:18:31;11.82;;;10.15;;
48487;SDS011;34289;48.572;13.378;2023-01-29T16:20:59;11.75;;;10.18;;
48487;SDS011;34289;48.572;13.378;2023-01-29T16:23:29;11.65;;;10.48;;
48487;SDS011;34289;48.572;13.378;2023-01-29T16:26:00;12.45;;;11.13;;
48487;SDS011;34289;48.572;13.378;2023-01-29T16:28:26;12.52;;;11.23;;
48487;SDS011;34289;48.572;13.378;2023-01-29T16:30:56;12.27;;;11.00;;
48487;SDS011;34289;48.572;13.378;2023-01-29T16:33:27;13.98;;;11.23;;
48487;SDS011;34289;48.572;13.378;2023-01-29T16:38:23;16.10;;;11.23;;
48487;SDS011;34289;48.572;13.378;2023-01-29T16:41:33;16.33;;;12.02;;
48487;SDS011;34289;48.572;13.378;2023-01-29T16:46:15;17.52;;;12.00;;
48487;SDS011;34289;48.572;13.378;2023-01-29T16:48:42;12.10;;;10.85;;
48487;SDS011;34289;48.572;13.378;2023-01-29T16:51:12;13.88;;;11.10;;
48487;SDS011;34289;48.572;13.378;2023-01-29T16:53:39;12.77;;;11.48;;
48487;SDS011;34289;48.572;13.378;2023-01-29T16:56:06;12.77;;;11.35;;
48487;SDS011;34289;48.572;13.378;2023-01-29T16:58:32;14.40;;;11.77;;